sensor_id;sensor_type;location;lat;lon;timestamp;P1;durP1;ratioP1;P2;durP2;ratioP2
58681;SDS011;44460;40.162;18.294;2023-02-01T00:00:32;12.93;;;4.47;;
58681;SDS011;44460;40.162;18.294;2023-02-01T00:02:59;9.23;;;3.30;;
58681;SDS011;44460;40.162;18.294;2023-02-01T00:05:25;10.30;;;3.53;;
58681;SDS011;44460;40.162;18.294;2023-02-01T00:07:50;7.80;;;3.40;;
58681;SDS011;44460;40.162;18.294;2023-02-01T00:10:16;11.75;;;4.57;;
58681;SDS011;44460;40.162;18.294;2023-02-01T00:12:41;9.82;;;2.67;;
58681;SDS011;44460;40.162;18.294;2023-02-01T00:15:07;11.57;;;3.42;;
58681;SDS011;44460;40.162;18.294;2023-02-01T00:17:32;9.43;;;3.53;;
58681;SDS011;44460;40.162;18.294;2023-02-01T00:19:58;10.15;;;3.40;;
58681;SDS011;44460;40.162;18.294;2023-02-01T00:22:23;9.05;;;2.92;;
58681;SDS011;44460;40.162;18.294;2023-02-01T00:24:48;8.38;;;3.30;;
58681;SDS011;44460;40.162;18.294;2023-02-01T00:27:14;8.48;;;2.53;;
58681;SDS011;44460;40.162;18.294;2023-02-01T00:29:43;7.43;;;3.38;;
58681;SDS011;44460;40.162;18.294;2023-02-01T00:32:09;9.90;;;2.70;;
58681;SDS011;44460;40.162;18.294;2023-02-01T00:34:35;12.10;;;3.60;;
58681;SDS011;44460;40.162;18.294;2023-02-01T00:37:01;8.07;;;2.67;;
58681;SDS011;44460;40.162;18.294;2023-02-01T00:39:26;9.13;;;2.60;;
58681;SDS011;44460;40.162;18.294;2023-02-01T00:41:51;9.45;;;2.75;;
58681;SDS011;44460;40.162;18.294;2023-02-01T00:44:17;6.50;;;2.25;;
58681;SDS011;44460;40.162;18.294;2023-02-01T00:46:43;7.72;;;2.20;;
58681;SDS011;44460;40.162;18.294;2023-02-01T00:49:08;6.25;;;2.28;;
58681;SDS011;44460;40.162;18.294;2023-02-01T00:51:34;8.77;;;2.85;;
58681;SDS011;44460;40.162;18.294;2023-02-01T00:54:00;7.47;;;2.38;;
58681;SDS011;44460;40.162;18.294;2023-02-01T00:56:25;6.82;;;2.45;;
58681;SDS011;44460;40.162;18.294;2023-02-01T00:58:52;7.43;;;2.75;;
58681;SDS011;44460;40.162;18.294;2023-02-01T01:01:22;9.07;;;3.90;;
58681;SDS011;44460;40.162;18.294;2023-02-01T01:03:48;12.38;;;2.20;;
58681;SDS011;44460;40.162;18.294;2023-02-01T01:06:16;5.18;;;2.10;;
58681;SDS011;44460;40.162;18.294;2023-02-01T01:08:42;8.32;;;2.55;;
58681;SDS011;44460;40.162;18.294;2023-02-01T01:11:12;16.02;;;4.10;;
58681;SDS011;44460;40.162;18.294;2023-02-01T01:13:38;10.93;;;2.58;;
58681;SDS011;44460;40.162;18.294;2023-02-01T01:16:04;9.48;;;2.80;;
58681;SDS011;44460;40.162;18.294;2023-02-01T01:18:30;6.90;;;2.80;;
58681;SDS011;44460;40.162;18.294;2023-02-01T01:20:55;8.45;;;2.30;;
58681;SDS011;44460;40.162;18.294;2023-02-01T01:23:21;6.32;;;2.00;;
58681;SDS011;44460;40.162;18.294;2023-02-01T01:25:46;8.35;;;2.42;;
58681;SDS011;44460;40.162;18.294;2023-02-01T01:28:12;7.82;;;2.38;;
58681;SDS011;44460;40.162;18.294;2023-02-01T01:30:37;8.60;;;1.80;;
58681;SDS011;44460;40.162;18.294;2023-02-01T01:33:03;6.10;;;1.98;;
58681;SDS011;44460;40.162;18.294;2023-02-01T01:35:29;5.88;;;1.90;;
58681;SDS011;44460;40.162;18.294;2023-02-01T01:37:55;5.35;;;2.00;;
58681;SDS011;44460;40.162;18.294;2023-02-01T01:40:21;7.43;;;1.98;;
58681;SDS011;44460;40.162;18.294;2023-02-01T01:42:46;6.80;;;2.20;;
58681;SDS011;44460;40.162;18.294;2023-02-01T01:47:44;6.80;;;2.20;;
58681;SDS011;44460;40.162;18.294;2023-02-01T01:50:13;11.40;;;2.42;;
58681;SDS011;44460;40.162;18.294;2023-02-01T01:52:41;5.35;;;1.83;;
58681;SDS011;44460;40.162;18.294;2023-02-01T01:55:09;6.70;;;2.10;;
58681;SDS011;44460;40.162;18.294;2023-02-01T01:57:39;9.35;;;2.05;;
58681;SDS011;44460;40.162;18.294;2023-02-01T02:00:08;7.70;;;1.98;;
58681;SDS011;44460;40.162;18.294;2023-02-01T02:02:43;11.73;;;2.30;;
58681;SDS011;44460;40.162;18.294;2023-02-01T02:05:09;6.78;;;2.08;;
58681;SDS011;44460;40.162;18.294;2023-02-01T02:07:36;6.40;;;1.83;;
58681;SDS011;44460;40.162;18.294;2023-02-01T02:10:08;11.38;;;2.50;;
58681;SDS011;44460;40.162;18.294;2023-02-01T02:12:37;5.32;;;1.83;;
58681;SDS011;44460;40.162;18.294;2023-02-01T02:15:03;6.68;;;1.98;;
58681;SDS011;44460;40.162;18.294;2023-02-01T02:17:33;8.63;;;2.10;;
58681;SDS011;44460;40.162;18.294;2023-02-01T02:35:46;7.88;;;2.17;;
58681;SDS011;44460;40.162;18.294;2023-02-01T02:38:18;7.45;;;2.00;;
58681;SDS011;44460;40.162;18.294;2023-02-01T02:43:23;9.73;;;2.40;;
58681;SDS011;44460;40.162;18.294;2023-02-01T02:46:16;6.35;;;2.00;;
58681;SDS011;44460;40.162;18.294;2023-02-01T02:49:05;9.77;;;2.00;;
58681;SDS011;44460;40.162;18.294;2023-02-01T02:51:35;9.70;;;2.10;;
58681;SDS011;44460;40.162;18.294;2023-02-01T02:54:23;5.72;;;2.10;;
58681;SDS011;44460;40.162;18.294;2023-02-01T02:57:08;6.78;;;1.65;;
58681;SDS011;44460;40.162;18.294;2023-02-01T02:59:56;7.43;;;2.20;;
58681;SDS011;44460;40.162;18.294;2023-02-01T03:02:41;10.45;;;2.10;;
58681;SDS011;44460;40.162;18.294;2023-02-01T03:05:31;5.85;;;1.70;;
58681;SDS011;44460;40.162;18.294;2023-02-01T03:17:58;4.03;;;1.60;;
58681;SDS011;44460;40.162;18.294;2023-02-01T03:20:25;7.00;;;1.60;;
58681;SDS011;44460;40.162;18.294;2023-02-01T03:22:51;5.55;;;1.80;;
58681;SDS011;44460;40.162;18.294;2023-02-01T03:25:20;10.88;;;1.65;;
58681;SDS011;44460;40.162;18.294;2023-02-01T03:27:49;5.82;;;1.90;;
58681;SDS011;44460;40.162;18.294;2023-02-01T03:30:21;3.22;;;1.35;;
58681;SDS011;44460;40.162;18.294;2023-02-01T03:32:50;18.63;;;2.70;;
58681;SDS011;44460;40.162;18.294;2023-02-01T03:37:56;7.07;;;1.77;;
58681;SDS011;44460;40.162;18.294;2023-02-01T03:40:22;5.47;;;1.80;;
58681;SDS011;44460;40.162;18.294;2023-02-01T03:42:49;6.95;;;1.75;;
58681;SDS011;44460;40.162;18.294;2023-02-01T03:45:18;6.13;;;1.50;;
58681;SDS011;44460;40.162;18.294;2023-02-01T03:47:48;7.65;;;2.10;;
58681;SDS011;44460;40.162;18.294;2023-02-01T03:50:16;5.22;;;1.83;;
58681;SDS011;44460;40.162;18.294;2023-02-01T03:52:44;5.53;;;1.95;;
58681;SDS011;44460;40.162;18.294;2023-02-01T03:55:12;6.50;;;2.10;;
58681;SDS011;44460;40.162;18.294;2023-02-01T03:57:43;4.10;;;1.52;;
58681;SDS011;44460;40.162;18.294;2023-02-01T04:00:19;7.30;;;2.15;;
58681;SDS011;44460;40.162;18.294;2023-02-01T04:02:48;6.10;;;1.63;;
58681;SDS011;44460;40.162;18.294;2023-02-01T04:05:14;10.75;;;2.63;;
58681;SDS011;44460;40.162;18.294;2023-02-01T04:07:46;4.00;;;1.52;;
58681;SDS011;44460;40.162;18.294;2023-02-01T04:10:12;6.97;;;1.88;;
58681;SDS011;44460;40.162;18.294;2023-02-01T04:12:38;3.25;;;1.35;;
58681;SDS011;44460;40.162;18.294;2023-02-01T04:15:03;4.15;;;1.40;;
58681;SDS011;44460;40.162;18.294;2023-02-01T04:17:29;6.82;;;2.20;;
58681;SDS011;44460;40.162;18.294;2023-02-01T04:19:55;8.63;;;3.10;;
58681;SDS011;44460;40.162;18.294;2023-02-01T04:22:20;8.45;;;2.42;;
58681;SDS011;44460;40.162;18.294;2023-02-01T04:24:46;9.05;;;2.55;;
58681;SDS011;44460;40.162;18.294;2023-02-01T04:27:11;11.50;;;4.28;;
58681;SDS011;44460;40.162;18.294;2023-02-01T04:29:37;11.15;;;2.33;;
58681;SDS011;44460;40.162;18.294;2023-02-01T04:32:02;6.13;;;1.88;;
58681;SDS011;44460;40.162;18.294;2023-02-01T04:34:28;4.25;;;1.55;;
58681;SDS011;44460;40.162;18.294;2023-02-01T04:36:53;5.47;;;1.80;;
58681;SDS011;44460;40.162;18.294;2023-02-01T04:39:19;9.05;;;1.80;;
58681;SDS011;44460;40.162;18.294;2023-02-01T04:41:44;6.18;;;1.85;;
58681;SDS011;44460;40.162;18.294;2023-02-01T04:44:14;11.70;;;2.63;;
58681;SDS011;44460;40.162;18.294;2023-02-01T04:46:39;5.63;;;1.70;;
58681;SDS011;44460;40.162;18.294;2023-02-01T04:49:05;5.50;;;1.40;;
58681;SDS011;44460;40.162;18.294;2023-02-01T04:51:30;4.75;;;1.60;;
58681;SDS011;44460;40.162;18.294;2023-02-01T04:53:56;6.90;;;2.05;;
58681;SDS011;44460;40.162;18.294;2023-02-01T04:56:21;4.85;;;1.88;;
58681;SDS011;44460;40.162;18.294;2023-02-01T04:58:47;10.38;;;2.05;;
58681;SDS011;44460;40.162;18.294;2023-02-01T05:01:12;8.18;;;1.67;;
58681;SDS011;44460;40.162;18.294;2023-02-01T05:03:37;7.43;;;1.92;;
58681;SDS011;44460;40.162;18.294;2023-02-01T05:06:03;5.55;;;1.65;;
58681;SDS011;44460;40.162;18.294;2023-02-01T05:08:30;9.32;;;2.10;;
58681;SDS011;44460;40.162;18.294;2023-02-01T05:10:56;10.55;;;2.72;;
58681;SDS011;44460;40.162;18.294;2023-02-01T05:13:21;6.72;;;1.90;;
58681;SDS011;44460;40.162;18.294;2023-02-01T05:16:05;8.25;;;1.80;;
58681;SDS011;44460;40.162;18.294;2023-02-01T05:18:31;5.60;;;1.73;;
58681;SDS011;44460;40.162;18.294;2023-02-01T05:20:56;6.18;;;2.20;;
58681;SDS011;44460;40.162;18.294;2023-02-01T05:23:22;7.07;;;1.98;;
58681;SDS011;44460;40.162;18.294;2023-02-01T05:25:47;8.98;;;2.25;;
58681;SDS011;44460;40.162;18.294;2023-02-01T05:28:13;7.03;;;2.10;;
58681;SDS011;44460;40.162;18.294;2023-02-01T05:30:38;6.07;;;2.55;;
58681;SDS011;44460;40.162;18.294;2023-02-01T05:33:03;11.35;;;4.13;;
58681;SDS011;44460;40.162;18.294;2023-02-01T05:35:29;6.65;;;1.80;;
58681;SDS011;44460;40.162;18.294;2023-02-01T05:37:55;6.28;;;1.85;;
58681;SDS011;44460;40.162;18.294;2023-02-01T05:40:20;6.57;;;1.83;;
58681;SDS011;44460;40.162;18.294;2023-02-01T05:42:45;3.60;;;1.60;;
58681;SDS011;44460;40.162;18.294;2023-02-01T05:45:11;7.97;;;2.40;;
58681;SDS011;44460;40.162;18.294;2023-02-01T05:47:36;5.75;;;2.05;;
58681;SDS011;44460;40.162;18.294;2023-02-01T05:50:02;9.65;;;2.60;;
58681;SDS011;44460;40.162;18.294;2023-02-01T05:52:28;7.63;;;2.55;;
58681;SDS011;44460;40.162;18.294;2023-02-01T05:54:53;9.27;;;3.55;;
58681;SDS011;44460;40.162;18.294;2023-02-01T05:57:19;6.97;;;3.20;;
58681;SDS011;44460;40.162;18.294;2023-02-01T05:59:44;8.30;;;2.97;;
58681;SDS011;44460;40.162;18.294;2023-02-01T06:02:13;8.80;;;5.05;;
58681;SDS011;44460;40.162;18.294;2023-02-01T06:04:38;9.27;;;3.50;;
58681;SDS011;44460;40.162;18.294;2023-02-01T06:07:04;7.50;;;3.47;;
58681;SDS011;44460;40.162;18.294;2023-02-01T06:09:30;9.63;;;3.03;;
58681;SDS011;44460;40.162;18.294;2023-02-01T06:11:56;10.77;;;4.10;;
58681;SDS011;44460;40.162;18.294;2023-02-01T06:14:21;9.60;;;4.13;;
58681;SDS011;44460;40.162;18.294;2023-02-01T06:16:47;9.23;;;3.83;;
58681;SDS011;44460;40.162;18.294;2023-02-01T06:19:13;9.60;;;3.70;;
58681;SDS011;44460;40.162;18.294;2023-02-01T06:21:38;8.43;;;3.72;;
58681;SDS011;44460;40.162;18.294;2023-02-01T06:24:04;13.88;;;4.88;;
58681;SDS011;44460;40.162;18.294;2023-02-01T06:26:29;8.75;;;4.05;;
58681;SDS011;44460;40.162;18.294;2023-02-01T06:28:55;15.63;;;7.15;;
58681;SDS011;44460;40.162;18.294;2023-02-01T06:31:21;10.73;;;3.83;;
58681;SDS011;44460;40.162;18.294;2023-02-01T06:33:47;9.57;;;3.13;;
58681;SDS011;44460;40.162;18.294;2023-02-01T06:36:14;11.88;;;3.28;;
58681;SDS011;44460;40.162;18.294;2023-02-01T06:38:41;9.40;;;3.03;;
58681;SDS011;44460;40.162;18.294;2023-02-01T06:41:06;9.23;;;3.80;;
58681;SDS011;44460;40.162;18.294;2023-02-01T06:43:31;8.65;;;3.90;;
58681;SDS011;44460;40.162;18.294;2023-02-01T06:48:25;13.13;;;3.58;;
58681;SDS011;44460;40.162;18.294;2023-02-01T06:50:51;7.97;;;3.35;;
58681;SDS011;44460;40.162;18.294;2023-02-01T06:53:16;7.43;;;3.10;;
58681;SDS011;44460;40.162;18.294;2023-02-01T06:55:50;10.38;;;3.90;;
58681;SDS011;44460;40.162;18.294;2023-02-01T06:58:15;14.13;;;5.65;;
58681;SDS011;44460;40.162;18.294;2023-02-01T07:00:41;35.53;;;6.45;;
58681;SDS011;44460;40.162;18.294;2023-02-01T07:03:06;19.38;;;3.63;;
58681;SDS011;44460;40.162;18.294;2023-02-01T07:05:32;13.18;;;3.92;;
58681;SDS011;44460;40.162;18.294;2023-02-01T07:07:57;16.55;;;3.58;;
58681;SDS011;44460;40.162;18.294;2023-02-01T07:10:23;9.77;;;3.15;;
58681;SDS011;44460;40.162;18.294;2023-02-01T07:12:48;13.57;;;4.25;;
58681;SDS011;44460;40.162;18.294;2023-02-01T07:15:14;12.82;;;5.63;;
58681;SDS011;44460;40.162;18.294;2023-02-01T07:17:39;58.42;;;10.27;;
58681;SDS011;44460;40.162;18.294;2023-02-01T07:20:05;29.20;;;4.38;;
58681;SDS011;44460;40.162;18.294;2023-02-01T07:22:30;13.07;;;3.45;;
58681;SDS011;44460;40.162;18.294;2023-02-01T07:24:56;13.57;;;4.25;;
58681;SDS011;44460;40.162;18.294;2023-02-01T07:27:21;14.35;;;3.15;;
58681;SDS011;44460;40.162;18.294;2023-02-01T07:29:50;23.38;;;4.63;;
58681;SDS011;44460;40.162;18.294;2023-02-01T07:32:15;31.20;;;4.55;;
58681;SDS011;44460;40.162;18.294;2023-02-01T07:34:44;18.92;;;3.28;;
58681;SDS011;44460;40.162;18.294;2023-02-01T07:37:10;17.30;;;4.13;;
58681;SDS011;44460;40.162;18.294;2023-02-01T07:39:41;23.67;;;4.72;;
58681;SDS011;44460;40.162;18.294;2023-02-01T07:42:07;30.65;;;5.63;;
58681;SDS011;44460;40.162;18.294;2023-02-01T07:44:32;10.27;;;3.78;;
58681;SDS011;44460;40.162;18.294;2023-02-01T07:46:58;11.05;;;2.90;;
58681;SDS011;44460;40.162;18.294;2023-02-01T07:49:23;11.90;;;3.45;;
58681;SDS011;44460;40.162;18.294;2023-02-01T07:51:49;11.00;;;3.08;;
58681;SDS011;44460;40.162;18.294;2023-02-01T07:54:14;13.95;;;3.97;;
58681;SDS011;44460;40.162;18.294;2023-02-01T07:56:40;15.23;;;5.72;;
58681;SDS011;44460;40.162;18.294;2023-02-01T07:59:05;17.67;;;6.90;;
58681;SDS011;44460;40.162;18.294;2023-02-01T08:01:32;11.35;;;6.55;;
58681;SDS011;44460;40.162;18.294;2023-02-01T08:03:58;19.83;;;6.40;;
58681;SDS011;44460;40.162;18.294;2023-02-01T08:06:24;20.30;;;9.90;;
58681;SDS011;44460;40.162;18.294;2023-02-01T08:08:50;14.65;;;6.57;;
58681;SDS011;44460;40.162;18.294;2023-02-01T08:11:16;15.18;;;8.40;;
58681;SDS011;44460;40.162;18.294;2023-02-01T08:13:42;11.35;;;5.88;;
58681;SDS011;44460;40.162;18.294;2023-02-01T08:16:09;32.30;;;5.82;;
58681;SDS011;44460;40.162;18.294;2023-02-01T08:18:35;15.13;;;6.35;;
58681;SDS011;44460;40.162;18.294;2023-02-01T08:21:05;18.70;;;5.80;;
58681;SDS011;44460;40.162;18.294;2023-02-01T08:23:32;18.95;;;5.55;;
58681;SDS011;44460;40.162;18.294;2023-02-01T08:28:56;22.02;;;4.47;;
58681;SDS011;44460;40.162;18.294;2023-02-01T08:31:23;12.98;;;4.43;;
58681;SDS011;44460;40.162;18.294;2023-02-01T08:33:53;22.58;;;4.30;;
58681;SDS011;44460;40.162;18.294;2023-02-01T08:36:18;18.30;;;3.47;;
58681;SDS011;44460;40.162;18.294;2023-02-01T08:38:44;9.65;;;3.55;;
58681;SDS011;44460;40.162;18.294;2023-02-01T08:41:10;9.80;;;3.95;;
58681;SDS011;44460;40.162;18.294;2023-02-01T08:43:37;14.10;;;5.72;;
58681;SDS011;44460;40.162;18.294;2023-02-01T08:46:03;12.73;;;4.68;;
58681;SDS011;44460;40.162;18.294;2023-02-01T08:48:29;43.35;;;6.18;;
58681;SDS011;44460;40.162;18.294;2023-02-01T08:50:54;12.27;;;3.78;;
58681;SDS011;44460;40.162;18.294;2023-02-01T08:53:20;24.55;;;5.63;;
58681;SDS011;44460;40.162;18.294;2023-02-01T08:55:46;10.13;;;3.85;;
58681;SDS011;44460;40.162;18.294;2023-02-01T08:58:12;12.88;;;5.50;;
58681;SDS011;44460;40.162;18.294;2023-02-01T09:00:39;14.15;;;5.18;;
58681;SDS011;44460;40.162;18.294;2023-02-01T09:03:04;8.65;;;3.70;;
58681;SDS011;44460;40.162;18.294;2023-02-01T09:05:30;19.45;;;3.88;;
58681;SDS011;44460;40.162;18.294;2023-02-01T09:07:55;11.07;;;3.88;;
58681;SDS011;44460;40.162;18.294;2023-02-01T09:10:21;12.52;;;2.90;;
58681;SDS011;44460;40.162;18.294;2023-02-01T09:12:46;11.07;;;4.25;;
58681;SDS011;44460;40.162;18.294;2023-02-01T09:15:12;9.73;;;4.05;;
58681;SDS011;44460;40.162;18.294;2023-02-01T09:17:37;9.85;;;3.75;;
58681;SDS011;44460;40.162;18.294;2023-02-01T09:20:03;13.98;;;3.63;;
58681;SDS011;44460;40.162;18.294;2023-02-01T09:22:29;4.40;;;2.10;;
58681;SDS011;44460;40.162;18.294;2023-02-01T09:24:54;8.85;;;3.58;;
58681;SDS011;44460;40.162;18.294;2023-02-01T09:27:20;20.23;;;4.55;;
58681;SDS011;44460;40.162;18.294;2023-02-01T09:29:49;9.65;;;4.50;;
58681;SDS011;44460;40.162;18.294;2023-02-01T09:34:42;13.55;;;5.28;;
58681;SDS011;44460;40.162;18.294;2023-02-01T09:37:08;15.90;;;4.75;;
58681;SDS011;44460;40.162;18.294;2023-02-01T09:39:33;7.20;;;2.72;;
58681;SDS011;44460;40.162;18.294;2023-02-01T09:44:55;10.30;;;3.78;;
58681;SDS011;44460;40.162;18.294;2023-02-01T09:47:24;8.80;;;3.45;;
58681;SDS011;44460;40.162;18.294;2023-02-01T09:52:42;9.38;;;4.32;;
58681;SDS011;44460;40.162;18.294;2023-02-01T09:55:16;8.43;;;2.92;;
58681;SDS011;44460;40.162;18.294;2023-02-01T09:57:45;9.32;;;2.80;;
58681;SDS011;44460;40.162;18.294;2023-02-01T10:00:24;11.30;;;3.05;;
58681;SDS011;44460;40.162;18.294;2023-02-01T10:02:52;7.75;;;2.85;;
58681;SDS011;44460;40.162;18.294;2023-02-01T10:05:23;7.43;;;2.42;;
58681;SDS011;44460;40.162;18.294;2023-02-01T10:10:26;9.40;;;3.85;;
58681;SDS011;44460;40.162;18.294;2023-02-01T10:15:49;8.70;;;3.33;;
58681;SDS011;44460;40.162;18.294;2023-02-01T10:23:30;13.73;;;4.38;;
58681;SDS011;44460;40.162;18.294;2023-02-01T10:26:08;12.90;;;4.28;;
58681;SDS011;44460;40.162;18.294;2023-02-01T10:28:38;14.30;;;4.65;;
58681;SDS011;44460;40.162;18.294;2023-02-01T10:31:04;10.95;;;3.40;;
58681;SDS011;44460;40.162;18.294;2023-02-01T10:33:32;10.35;;;3.83;;
58681;SDS011;44460;40.162;18.294;2023-02-01T10:36:00;10.90;;;3.63;;
58681;SDS011;44460;40.162;18.294;2023-02-01T10:38:29;9.75;;;3.90;;
58681;SDS011;44460;40.162;18.294;2023-02-01T10:40:57;11.10;;;3.63;;
58681;SDS011;44460;40.162;18.294;2023-02-01T10:43:25;8.60;;;4.15;;
58681;SDS011;44460;40.162;18.294;2023-02-01T10:45:50;14.85;;;3.80;;
58681;SDS011;44460;40.162;18.294;2023-02-01T10:48:16;10.55;;;3.38;;
58681;SDS011;44460;40.162;18.294;2023-02-01T10:50:48;11.13;;;5.55;;
58681;SDS011;44460;40.162;18.294;2023-02-01T10:55:41;9.98;;;4.38;;
58681;SDS011;44460;40.162;18.294;2023-02-01T10:58:14;8.07;;;3.40;;
58681;SDS011;44460;40.162;18.294;2023-02-01T11:03:25;8.23;;;3.20;;
58681;SDS011;44460;40.162;18.294;2023-02-01T11:05:54;9.52;;;4.05;;
58681;SDS011;44460;40.162;18.294;2023-02-01T11:10:45;10.50;;;4.30;;
58681;SDS011;44460;40.162;18.294;2023-02-01T11:13:15;9.90;;;3.92;;
58681;SDS011;44460;40.162;18.294;2023-02-01T11:15:44;7.38;;;3.10;;
58681;SDS011;44460;40.162;18.294;2023-02-01T11:18:18;10.38;;;3.60;;
58681;SDS011;44460;40.162;18.294;2023-02-01T11:20:45;13.18;;;4.93;;
58681;SDS011;44460;40.162;18.294;2023-02-01T11:23:15;10.48;;;3.55;;
58681;SDS011;44460;40.162;18.294;2023-02-01T11:25:47;12.23;;;3.58;;
58681;SDS011;44460;40.162;18.294;2023-02-01T11:28:13;10.23;;;4.40;;
58681;SDS011;44460;40.162;18.294;2023-02-01T11:30:40;10.45;;;3.75;;
58681;SDS011;44460;40.162;18.294;2023-02-01T11:33:06;9.98;;;3.88;;
58681;SDS011;44460;40.162;18.294;2023-02-01T11:35:33;9.40;;;4.32;;
58681;SDS011;44460;40.162;18.294;2023-02-01T11:38:09;8.73;;;3.13;;
58681;SDS011;44460;40.162;18.294;2023-02-01T11:40:36;11.85;;;2.88;;
58681;SDS011;44460;40.162;18.294;2023-02-01T11:45:33;12.55;;;2.75;;
58681;SDS011;44460;40.162;18.294;2023-02-01T11:48:00;6.25;;;2.40;;
58681;SDS011;44460;40.162;18.294;2023-02-01T11:50:30;10.82;;;3.20;;
58681;SDS011;44460;40.162;18.294;2023-02-01T11:53:01;7.82;;;3.08;;
58681;SDS011;44460;40.162;18.294;2023-02-01T11:58:19;9.55;;;4.13;;
58681;SDS011;44460;40.162;18.294;2023-02-01T12:06:34;11.77;;;3.50;;
58681;SDS011;44460;40.162;18.294;2023-02-01T12:08:40;7.45;;;3.20;;
58681;SDS011;44460;40.162;18.294;2023-02-01T12:21:46;10.18;;;3.65;;
58681;SDS011;44460;40.162;18.294;2023-02-01T12:24:32;6.32;;;2.70;;
58681;SDS011;44460;40.162;18.294;2023-02-01T12:27:04;8.88;;;2.67;;
58681;SDS011;44460;40.162;18.294;2023-02-01T12:29:35;8.55;;;2.88;;
58681;SDS011;44460;40.162;18.294;2023-02-01T12:39:56;15.93;;;4.85;;
58681;SDS011;44460;40.162;18.294;2023-02-01T12:42:26;10.85;;;4.30;;
58681;SDS011;44460;40.162;18.294;2023-02-01T12:44:56;13.80;;;4.18;;
58681;SDS011;44460;40.162;18.294;2023-02-01T12:47:30;9.38;;;3.40;;
58681;SDS011;44460;40.162;18.294;2023-02-01T12:49:58;8.18;;;3.67;;
58681;SDS011;44460;40.162;18.294;2023-02-01T12:55:06;8.40;;;3.13;;
58681;SDS011;44460;40.162;18.294;2023-02-01T12:57:33;7.53;;;3.28;;
58681;SDS011;44460;40.162;18.294;2023-02-01T13:02:32;10.73;;;3.95;;
58681;SDS011;44460;40.162;18.294;2023-02-01T13:05:04;10.18;;;4.18;;
58681;SDS011;44460;40.162;18.294;2023-02-01T13:07:41;21.02;;;13.55;;
58681;SDS011;44460;40.162;18.294;2023-02-01T13:10:18;9.23;;;3.60;;
58681;SDS011;44460;40.162;18.294;2023-02-01T13:12:51;12.63;;;5.95;;
58681;SDS011;44460;40.162;18.294;2023-02-01T13:15:39;10.40;;;4.32;;
58681;SDS011;44460;40.162;18.294;2023-02-01T13:18:05;9.70;;;4.50;;
58681;SDS011;44460;40.162;18.294;2023-02-01T13:20:36;10.32;;;4.95;;
58681;SDS011;44460;40.162;18.294;2023-02-01T13:25:51;9.43;;;3.58;;
58681;SDS011;44460;40.162;18.294;2023-02-01T13:36:15;5.25;;;2.42;;
58681;SDS011;44460;40.162;18.294;2023-02-01T13:38:49;10.68;;;4.40;;
58681;SDS011;44460;40.162;18.294;2023-02-01T13:43:50;8.77;;;4.78;;
58681;SDS011;44460;40.162;18.294;2023-02-01T13:46:16;25.40;;;12.60;;
58681;SDS011;44460;40.162;18.294;2023-02-01T13:51:10;16.20;;;5.93;;
58681;SDS011;44460;40.162;18.294;2023-02-01T13:53:37;8.95;;;3.30;;
58681;SDS011;44460;40.162;18.294;2023-02-01T13:56:15;6.78;;;3.30;;
58681;SDS011;44460;40.162;18.294;2023-02-01T13:58:42;13.00;;;5.97;;
58681;SDS011;44460;40.162;18.294;2023-02-01T14:03:48;12.10;;;6.10;;
58681;SDS011;44460;40.162;18.294;2023-02-01T14:08:43;14.57;;;5.75;;
58681;SDS011;44460;40.162;18.294;2023-02-01T14:13:53;9.75;;;3.80;;
58681;SDS011;44460;40.162;18.294;2023-02-01T14:16:18;14.57;;;6.78;;
58681;SDS011;44460;40.162;18.294;2023-02-01T14:23:57;11.55;;;4.30;;
58681;SDS011;44460;40.162;18.294;2023-02-01T14:26:24;18.17;;;9.50;;
58681;SDS011;44460;40.162;18.294;2023-02-01T14:28:52;8.43;;;3.03;;
58681;SDS011;44460;40.162;18.294;2023-02-01T14:33:44;10.73;;;4.53;;
58681;SDS011;44460;40.162;18.294;2023-02-01T14:36:11;11.02;;;3.90;;
58681;SDS011;44460;40.162;18.294;2023-02-01T14:38:38;12.43;;;5.40;;
58681;SDS011;44460;40.162;18.294;2023-02-01T14:43:50;11.70;;;6.28;;
58681;SDS011;44460;40.162;18.294;2023-02-01T14:46:15;11.65;;;3.40;;
58681;SDS011;44460;40.162;18.294;2023-02-01T14:48:44;10.50;;;3.08;;
58681;SDS011;44460;40.162;18.294;2023-02-01T14:51:11;16.20;;;4.80;;
58681;SDS011;44460;40.162;18.294;2023-02-01T14:53:38;25.40;;;14.60;;
58681;SDS011;44460;40.162;18.294;2023-02-01T15:01:22;12.52;;;4.28;;
58681;SDS011;44460;40.162;18.294;2023-02-01T15:06:24;9.43;;;4.15;;
58681;SDS011;44460;40.162;18.294;2023-02-01T15:08:52;12.15;;;6.18;;
58681;SDS011;44460;40.162;18.294;2023-02-01T15:11:19;24.52;;;12.35;;
58681;SDS011;44460;40.162;18.294;2023-02-01T15:13:52;19.17;;;10.20;;
58681;SDS011;44460;40.162;18.294;2023-02-01T15:16:20;14.88;;;6.95;;
58681;SDS011;44460;40.162;18.294;2023-02-01T15:18:45;15.43;;;8.93;;
58681;SDS011;44460;40.162;18.294;2023-02-01T15:23:42;17.17;;;9.27;;
58681;SDS011;44460;40.162;18.294;2023-02-01T15:26:08;19.88;;;9.57;;
58681;SDS011;44460;40.162;18.294;2023-02-01T15:28:33;15.98;;;8.88;;
58681;SDS011;44460;40.162;18.294;2023-02-01T15:30:59;34.08;;;16.60;;
58681;SDS011;44460;40.162;18.294;2023-02-01T15:33:26;24.63;;;14.43;;
58681;SDS011;44460;40.162;18.294;2023-02-01T15:35:52;27.38;;;15.95;;
58681;SDS011;44460;40.162;18.294;2023-02-01T15:43:19;19.70;;;11.27;;
58681;SDS011;44460;40.162;18.294;2023-02-01T15:45:44;31.88;;;18.15;;
58681;SDS011;44460;40.162;18.294;2023-02-01T15:48:14;32.88;;;20.33;;
58681;SDS011;44460;40.162;18.294;2023-02-01T15:50:41;34.67;;;22.63;;
58681;SDS011;44460;40.162;18.294;2023-02-01T15:53:12;34.47;;;21.35;;
58681;SDS011;44460;40.162;18.294;2023-02-01T15:55:40;51.97;;;28.92;;
58681;SDS011;44460;40.162;18.294;2023-02-01T15:58:09;46.88;;;29.38;;
58681;SDS011;44460;40.162;18.294;2023-02-01T16:00:49;60.78;;;35.95;;
58681;SDS011;44460;40.162;18.294;2023-02-01T16:03:26;63.42;;;40.03;;
58681;SDS011;44460;40.162;18.294;2023-02-01T16:05:56;72.53;;;46.30;;
58681;SDS011;44460;40.162;18.294;2023-02-01T16:08:23;69.72;;;41.70;;
58681;SDS011;44460;40.162;18.294;2023-02-01T16:10:50;50.65;;;30.80;;
58681;SDS011;44460;40.162;18.294;2023-02-01T16:13:16;52.70;;;30.02;;
58681;SDS011;44460;40.162;18.294;2023-02-01T16:15:42;57.75;;;34.05;;
58681;SDS011;44460;40.162;18.294;2023-02-01T16:18:07;70.00;;;41.63;;
58681;SDS011;44460;40.162;18.294;2023-02-01T16:20:33;51.17;;;33.03;;
58681;SDS011;44460;40.162;18.294;2023-02-01T16:23:00;53.88;;;32.88;;
58681;SDS011;44460;40.162;18.294;2023-02-01T16:25:26;54.17;;;34.05;;
58681;SDS011;44460;40.162;18.294;2023-02-01T16:27:51;47.38;;;29.30;;
58681;SDS011;44460;40.162;18.294;2023-02-01T16:30:17;34.72;;;19.88;;
58681;SDS011;44460;40.162;18.294;2023-02-01T16:32:48;32.47;;;19.02;;
58681;SDS011;44460;40.162;18.294;2023-02-01T16:35:20;42.72;;;30.90;;
58681;SDS011;44460;40.162;18.294;2023-02-01T16:37:46;31.85;;;20.00;;
58681;SDS011;44460;40.162;18.294;2023-02-01T16:40:13;30.52;;;15.07;;
58681;SDS011;44460;40.162;18.294;2023-02-01T16:42:38;23.58;;;12.95;;
58681;SDS011;44460;40.162;18.294;2023-02-01T16:45:04;17.88;;;11.18;;
58681;SDS011;44460;40.162;18.294;2023-02-01T16:47:29;23.00;;;11.32;;
58681;SDS011;44460;40.162;18.294;2023-02-01T16:49:55;26.02;;;9.80;;
58681;SDS011;44460;40.162;18.294;2023-02-01T16:52:21;21.33;;;11.38;;
58681;SDS011;44460;40.162;18.294;2023-02-01T16:54:47;21.63;;;12.70;;
58681;SDS011;44460;40.162;18.294;2023-02-01T16:57:13;23.38;;;12.55;;